createdAt,value
2023-05-15T00:01:12.279Z,11.2
2023-05-15T00:03:14.409Z,11.2
2023-05-15T00:05:16.423Z,11.1
2023-05-15T00:07:18.341Z,11
2023-05-15T00:11:22.349Z,11.1
2023-05-15T00:13:24.342Z,11
2023-05-15T00:15:29.602Z,11.2
2023-05-15T00:17:31.637Z,11.4
2023-05-15T00:19:33.621Z,11.2
2023-05-15T00:21:35.601Z,11.1
2023-05-15T00:25:39.613Z,11.2
2023-05-15T00:29:46.890Z,11.3
2023-05-15T00:33:50.889Z,10.8
2023-05-15T00:36:19.599Z,11.1
2023-05-15T00:38:21.595Z,11.2
2023-05-15T00:40:23.608Z,11
2023-05-15T00:42:28.853Z,10.9
2023-05-15T00:44:30.828Z,10.9
2023-05-15T00:46:33.044Z,10.8
2023-05-15T00:48:34.865Z,11
2023-05-15T00:50:36.929Z,11.1
2023-05-15T00:52:38.884Z,11.1
2023-05-15T00:54:40.929Z,10.9
2023-05-15T00:56:46.164Z,10.9
2023-05-15T01:00:50.214Z,10.8
2023-05-15T01:02:52.346Z,10.9
2023-05-15T01:04:54.157Z,10.8
2023-05-15T01:06:56.168Z,10.9
2023-05-15T01:08:58.181Z,10.8
2023-05-15T01:11:03.401Z,10.9
2023-05-15T01:15:07.387Z,10.9
2023-05-15T01:19:11.517Z,10.8
2023-05-15T01:25:20.696Z,10.7
2023-05-15T01:27:22.652Z,10.7
2023-05-15T01:29:24.687Z,10.7
2023-05-15T01:30:27.327Z,10.8
2023-05-15T01:32:29.403Z,10.8
2023-05-15T01:34:31.326Z,10.8
2023-05-15T01:36:33.341Z,10.7
2023-05-15T01:40:40.564Z,10.8
2023-05-15T01:42:42.561Z,10.7
2023-05-15T01:44:44.575Z,10.9
2023-05-15T01:50:50.633Z,10.4
2023-05-15T01:56:59.901Z,10.6
2023-05-15T02:01:03.896Z,10.8
2023-05-15T02:03:06.003Z,10.8
2023-05-15T02:09:15.131Z,10.7
2023-05-15T02:13:19.156Z,10.7
2023-05-15T02:28:40.563Z,10.9
2023-05-15T02:30:42.580Z,10.7
2023-05-15T02:32:44.642Z,10.7
2023-05-15T02:36:52.069Z,10.6
2023-05-15T02:40:56.028Z,10.7
2023-05-15T02:45:00.098Z,10.6
2023-05-15T02:51:09.298Z,10.5
2023-05-15T02:53:11.279Z,10.6
2023-05-15T02:55:13.274Z,10.6
2023-05-15T02:57:15.251Z,10.5
2023-05-15T02:59:17.232Z,10.4
2023-05-15T03:09:30.502Z,10.5
2023-05-15T03:11:32.487Z,10.4
2023-05-15T03:13:34.476Z,10.4
2023-05-15T03:15:36.497Z,10.4
2023-05-15T03:17:41.757Z,10.3
2023-05-15T03:21:45.700Z,10.3
2023-05-15T03:22:48.343Z,10.3
2023-05-15T03:33:01.681Z,10.4
2023-05-15T03:35:03.636Z,10.3
2023-05-15T03:37:05.588Z,10.1
2023-05-15T03:43:11.600Z,10.1
2023-05-15T03:55:27.103Z,10.2
2023-05-15T03:57:28.850Z,10.3
2023-05-15T03:59:34.056Z,10.3
2023-05-15T04:01:44.228Z,10.4
2023-05-15T04:03:38.166Z,10.4
2023-05-15T04:05:40.126Z,10.3
2023-05-15T04:07:42.032Z,10.5
2023-05-15T04:09:44.050Z,10.3
2023-05-15T04:11:46.057Z,10.2
2023-05-15T04:13:51.253Z,10.4
2023-05-15T04:15:53.287Z,10.4
2023-05-15T04:17:55.293Z,10.3
2023-05-15T04:20:24.120Z,10.3
2023-05-15T04:22:26.084Z,10.5
2023-05-15T04:24:28.118Z,10.5
2023-05-15T04:26:33.386Z,10.6
2023-05-15T04:28:35.326Z,10.3
2023-05-15T04:30:37.286Z,10.6
2023-05-15T04:32:39.225Z,10.4
2023-05-15T04:34:41.229Z,10.8
2023-05-15T04:36:43.233Z,10.6
2023-05-15T04:38:45.218Z,10.6
2023-05-15T04:40:50.467Z,10.6
2023-05-15T04:42:52.443Z,10.7
2023-05-15T04:44:54.474Z,10.7
2023-05-15T04:46:56.456Z,10.7
2023-05-15T04:55:07.689Z,10.6
2023-05-15T04:57:09.710Z,10.8
2023-05-15T04:59:11.706Z,10.9
2023-05-15T05:05:17.710Z,11
2023-05-15T05:07:19.713Z,10.9
2023-05-15T05:09:24.918Z,11.1
2023-05-15T05:11:26.924Z,11
2023-05-15T05:13:28.928Z,11
2023-05-15T05:18:35.568Z,10.8
2023-05-15T05:20:37.559Z,10.8
2023-05-15T05:26:46.764Z,10.9
2023-05-15T05:28:48.741Z,10.8
2023-05-15T05:30:50.741Z,11
2023-05-15T05:32:52.801Z,11.3
2023-05-15T05:34:54.795Z,11.2
2023-05-15T05:41:04.017Z,11.7
2023-05-15T05:43:06.038Z,11.6
2023-05-15T05:47:10.102Z,11.4
2023-05-15T05:49:12.003Z,11.8
2023-05-15T05:51:17.280Z,11.9
2023-05-15T05:53:19.250Z,11.8
2023-05-15T05:55:21.219Z,11.6
2023-05-15T05:57:23.243Z,11.9
2023-05-15T05:59:25.259Z,11.9
2023-05-15T06:01:27.249Z,11.6
2023-05-15T06:03:29.335Z,11.8
2023-05-15T06:05:34.285Z,12.3
2023-05-15T06:07:36.310Z,12.3
2023-05-15T06:09:38.214Z,12.5
2023-05-15T06:10:40.844Z,12.5
2023-05-15T06:16:46.684Z,12.6
2023-05-15T06:31:03.585Z,13.3
2023-05-15T06:35:10.417Z,14.4
2023-05-15T06:39:14.235Z,14.7
2023-05-15T07:06:47.611Z,17.2
2023-05-15T07:08:49.453Z,17.4
2023-05-15T07:10:51.315Z,17.1
2023-05-15T07:12:53.150Z,16.9
2023-05-15T07:14:58.182Z,16.2
2023-05-15T07:17:00.073Z,16.3
2023-05-15T07:21:03.781Z,15.8
2023-05-15T07:23:05.628Z,15.8
2023-05-15T07:31:16.220Z,15.3
2023-05-15T07:41:25.533Z,15.6
2023-05-15T07:43:30.598Z,15.9
2023-05-15T07:55:41.768Z,17.5
2023-05-15T08:04:19.012Z,17.5
2023-05-15T08:06:20.776Z,16.9
2023-05-15T08:10:27.599Z,18
2023-05-15T08:12:29.417Z,18.4
2023-05-15T08:14:31.315Z,18.7
2023-05-15T08:16:33.218Z,19.4
2023-05-15T08:18:34.968Z,19.5
2023-05-15T08:20:38.290Z,19
2023-05-15T08:22:40.120Z,18.6
2023-05-15T08:24:45.039Z,18.1
2023-05-15T08:26:46.824Z,18.7
2023-05-15T08:28:48.625Z,19.5
2023-05-15T08:36:55.818Z,17.9
2023-05-15T08:39:00.807Z,17.6
2023-05-15T08:41:02.625Z,17.3
2023-05-15T08:45:06.240Z,18.7
2023-05-15T08:47:08.164Z,19.2
2023-05-15T08:49:09.916Z,17.8
2023-05-15T08:53:16.605Z,18.4
2023-05-15T08:58:22.681Z,17.9
2023-05-15T09:00:24.494Z,18
2023-05-15T09:02:26.367Z,18.4
2023-05-15T09:04:28.121Z,18.7
2023-05-15T09:06:33.071Z,18.9
2023-05-15T09:08:34.903Z,19.1
2023-05-15T09:10:36.663Z,18.8
2023-05-15T09:12:38.467Z,18.5
2023-05-15T09:16:42.144Z,19.2
2023-05-15T09:20:48.835Z,19.2
2023-05-15T09:22:50.637Z,19.3
2023-05-15T09:24:52.444Z,19.1
2023-05-15T09:30:57.839Z,19.6
2023-05-15T09:32:59.708Z,19.6
2023-05-15T09:35:04.595Z,19.3
2023-05-15T09:39:08.183Z,19.5
2023-05-15T09:41:09.956Z,20
2023-05-15T09:43:11.803Z,20
2023-05-15T09:45:13.533Z,19.6
2023-05-15T09:47:15.383Z,19.7
2023-05-15T09:49:20.284Z,19.6
2023-05-15T09:51:22.065Z,19.5
2023-05-15T09:53:23.872Z,19.4
2023-05-15T09:54:26.371Z,18.8
2023-05-15T09:58:29.937Z,19.3
2023-05-15T10:02:36.693Z,20.1
2023-05-15T10:04:38.466Z,19.8
2023-05-15T10:10:43.882Z,20
2023-05-15T10:16:52.347Z,19.7
2023-05-15T10:20:55.897Z,19.4
2023-05-15T10:24:59.486Z,19.6
2023-05-15T10:27:01.305Z,19.5
2023-05-15T10:29:03.049Z,19.3
2023-05-15T10:31:08.071Z,19.8
2023-05-15T10:37:13.410Z,19.5
2023-05-15T10:39:15.214Z,19.6
2023-05-15T10:41:17.949Z,19.5
2023-05-15T10:43:20.867Z,19.3
2023-05-15T10:45:23.745Z,20.2
2023-05-15T10:49:27.354Z,19.9
2023-05-15T10:50:29.842Z,19.8
2023-05-15T10:54:33.387Z,19.9
2023-05-15T10:56:35.188Z,19.9
2023-05-15T10:58:40.168Z,19.5
2023-05-15T11:00:41.947Z,19.6
2023-05-15T11:02:43.774Z,19.9
2023-05-15T11:04:45.640Z,20
2023-05-15T11:06:47.298Z,20.1
2023-05-15T11:08:49.114Z,19.9
2023-05-15T11:10:50.903Z,20.1
2023-05-15T11:12:55.843Z,20.3
2023-05-15T11:14:57.642Z,20
2023-05-15T11:16:59.462Z,19.9
2023-05-15T11:19:01.247Z,19.4
2023-05-15T11:21:03.030Z,19.3
2023-05-15T11:25:06.617Z,19.1
2023-05-15T11:27:11.569Z,18.8
2023-05-15T11:29:13.337Z,19
2023-05-15T11:31:15.216Z,18.4
2023-05-15T11:33:16.991Z,18.6
2023-05-15T11:41:27.378Z,18.4
2023-05-15T11:43:29.161Z,18.8
2023-05-15T11:47:59.483Z,18.7
2023-05-15T11:50:01.303Z,18.8
2023-05-15T11:52:03.093Z,19.1
2023-05-15T11:54:08.162Z,19.2
2023-05-15T11:56:09.868Z,18.7
2023-05-15T12:00:13.500Z,18.9
2023-05-15T12:04:17.327Z,18.2
2023-05-15T12:06:18.935Z,18.2
2023-05-15T12:08:23.955Z,18.3
2023-05-15T12:12:27.583Z,17.9
2023-05-15T12:14:29.397Z,17.9
2023-05-15T12:18:33.165Z,18
2023-05-15T12:20:34.923Z,17.6
2023-05-15T12:22:39.893Z,17.8
2023-05-15T12:24:41.748Z,17.8
2023-05-15T12:26:43.529Z,17.6
2023-05-15T12:28:45.346Z,17.4
2023-05-15T12:30:47.226Z,17.5
2023-05-15T12:32:49.094Z,17.6
2023-05-15T12:34:50.889Z,17.6
2023-05-15T12:36:55.882Z,17.9
2023-05-15T12:38:57.690Z,17.7
2023-05-15T12:40:59.571Z,17.7
2023-05-15T12:42:02.093Z,17.4
2023-05-15T12:44:03.886Z,17.3
2023-05-15T12:48:07.644Z,17.3
2023-05-15T12:50:12.576Z,17.3
2023-05-15T12:52:14.419Z,17.4
2023-05-15T12:54:16.253Z,17.8
2023-05-15T12:58:19.928Z,18
2023-05-15T13:04:28.630Z,17.6
2023-05-15T13:08:32.276Z,17.4
2023-05-15T13:10:34.157Z,17.4
2023-05-15T13:14:37.821Z,17.4
2023-05-15T13:18:44.698Z,17.9
2023-05-15T13:20:46.540Z,17.9
2023-05-15T13:22:48.368Z,17.9
2023-05-15T13:28:53.906Z,18
2023-05-15T13:30:55.775Z,18.2
2023-05-15T13:35:02.581Z,18.2
2023-05-15T13:37:04.419Z,18.1
2023-05-15T13:38:09.450Z,17.5
2023-05-15T13:40:08.765Z,17.6
2023-05-15T13:42:10.624Z,17.6
2023-05-15T13:46:17.518Z,17.2
2023-05-15T13:48:19.349Z,17.3
2023-05-15T13:50:21.168Z,17.3
2023-05-15T13:52:22.994Z,17.2
2023-05-15T13:54:24.840Z,17.5
2023-05-15T13:56:26.694Z,17
2023-05-15T13:58:28.581Z,17.1
2023-05-15T14:00:33.562Z,16.7
2023-05-15T14:02:35.425Z,16.8
2023-05-15T14:04:37.297Z,17.2
2023-05-15T14:06:39.104Z,17.2
2023-05-15T14:10:42.823Z,17.5
2023-05-15T14:16:53.074Z,17.7
2023-05-15T14:20:56.766Z,18.3
2023-05-15T14:25:00.426Z,18.4
2023-05-15T14:27:02.297Z,18.4
2023-05-15T14:29:07.272Z,18.2
2023-05-15T14:33:11.040Z,18.9
2023-05-15T14:34:13.466Z,18.7
2023-05-15T14:36:15.346Z,18.5
2023-05-15T14:38:17.141Z,18.5
2023-05-15T14:40:18.995Z,18.6
2023-05-15T14:44:25.852Z,18.3
2023-05-15T14:46:27.710Z,18.5
2023-05-15T14:48:29.476Z,18.4
2023-05-15T14:50:31.337Z,18.4
2023-05-15T14:52:33.159Z,18.6
2023-05-15T14:54:35.005Z,18.2
2023-05-15T14:56:39.970Z,18.7
2023-05-15T14:58:41.799Z,18.5
2023-05-15T15:00:43.635Z,18.9
2023-05-15T15:02:45.537Z,19.5
2023-05-15T15:04:47.312Z,18.7
2023-05-15T15:06:49.132Z,18.4
2023-05-15T15:10:55.961Z,18.4
2023-05-15T15:12:57.799Z,18.4
2023-05-15T15:14:59.608Z,17.6
2023-05-15T15:17:01.442Z,17.2
2023-05-15T15:19:03.330Z,17.2
2023-05-15T15:21:05.129Z,17.2
2023-05-15T15:23:06.921Z,17.1
2023-05-15T15:31:44.153Z,16.4
2023-05-15T15:33:46.000Z,16.2
2023-05-15T15:35:47.811Z,16.2
2023-05-15T15:37:52.782Z,16.2
2023-05-15T15:41:56.488Z,15.8
2023-05-15T15:43:58.366Z,15.6
2023-05-15T15:46:00.258Z,15.5
2023-05-15T15:48:02.148Z,15.5
2023-05-15T15:50:04.005Z,15.4
2023-05-15T15:52:08.952Z,15.3
2023-05-15T15:54:10.820Z,15.5
2023-05-15T15:56:12.714Z,15.4
2023-05-15T15:58:14.552Z,15.4
2023-05-15T16:00:16.442Z,15.1
2023-05-15T16:04:20.146Z,15
2023-05-15T16:08:27.007Z,14.6
2023-05-15T16:10:29.188Z,14.8
2023-05-15T16:12:30.745Z,14.7
2023-05-15T16:16:34.529Z,14.7
2023-05-15T16:18:36.378Z,14.8
2023-05-15T16:20:41.423Z,14.8
2023-05-15T16:22:43.311Z,14.7
2023-05-15T16:24:45.176Z,15
2023-05-15T16:25:47.691Z,15.1
2023-05-15T16:40:04.025Z,15.1
2023-05-15T16:42:07.305Z,14.8
2023-05-15T16:46:09.705Z,14.8
2023-05-15T16:48:14.864Z,14.5
2023-05-15T16:50:16.637Z,14.6
2023-05-15T16:52:18.517Z,14.7
2023-05-15T16:54:20.398Z,14
2023-05-15T16:58:24.170Z,14.5
2023-05-15T17:04:33.241Z,14.5
2023-05-15T17:06:34.833Z,14.2
2023-05-15T17:08:36.758Z,14.3
2023-05-15T17:12:40.499Z,14.3
2023-05-15T17:21:53.715Z,14.3
2023-05-15T17:23:55.614Z,14.2
2023-05-15T17:25:57.513Z,14.3
2023-05-15T17:32:06.420Z,14
2023-05-15T17:34:08.214Z,14.5
2023-05-15T17:36:10.125Z,14.7
2023-05-15T17:38:12.050Z,14.7
2023-05-15T17:40:13.902Z,14.4
2023-05-15T17:42:15.814Z,14.2
2023-05-15T17:44:20.834Z,14.4
2023-05-15T17:46:22.800Z,14.2
2023-05-15T17:48:24.622Z,14.1
2023-05-15T17:50:26.509Z,14.1
2023-05-15T18:04:42.954Z,14
2023-05-15T18:06:44.845Z,13.7
2023-05-15T18:08:46.716Z,13.7
2023-05-15T18:10:48.636Z,13.6
2023-05-15T18:17:59.950Z,13.8
2023-05-15T18:20:01.835Z,13.8
2023-05-15T18:22:03.739Z,13.6
2023-05-15T18:24:05.598Z,13.5
2023-05-15T18:26:10.653Z,13.6
2023-05-15T18:28:12.550Z,13.5
2023-05-15T18:32:16.325Z,13.3
2023-05-15T18:38:22.012Z,13
2023-05-15T18:40:27.037Z,12.7
2023-05-15T18:42:28.965Z,12.7
2023-05-15T18:44:30.837Z,12.6
2023-05-15T18:46:32.748Z,13
2023-05-15T18:48:34.655Z,12.8
2023-05-15T18:52:38.492Z,12.6
2023-05-15T18:56:45.385Z,12.7
2023-05-15T18:58:47.360Z,12.3
2023-05-15T19:00:49.238Z,12.6
2023-05-15T19:06:54.980Z,12.3
2023-05-15T19:09:00.015Z,12.5
2023-05-15T19:11:01.947Z,12.7
2023-05-15T19:13:03.787Z,12.6
2023-05-15T19:15:32.699Z,12.5
2023-05-15T19:17:37.312Z,12.5
2023-05-15T19:19:36.477Z,12.6
2023-05-15T19:23:43.382Z,12.5
2023-05-15T19:25:45.280Z,12.7
2023-05-15T19:35:57.952Z,12.6
2023-05-15T19:44:05.853Z,12.4
2023-05-15T19:46:07.948Z,12.3
2023-05-15T19:48:09.778Z,12
2023-05-15T19:50:14.802Z,12.1
2023-05-15T19:52:16.765Z,12.1
2023-05-15T19:54:18.626Z,12
2023-05-15T19:58:22.496Z,12
2023-05-15T20:00:24.486Z,11.6
2023-05-15T20:08:36.903Z,11.1
2023-05-15T20:09:39.576Z,11.2
2023-05-15T20:13:43.253Z,11.3
2023-05-15T20:21:54.558Z,11.2
2023-05-15T20:25:58.476Z,10.8
2023-05-15T20:28:00.499Z,10.6
2023-05-15T20:30:02.487Z,10.9
2023-05-15T20:32:07.759Z,10.6
2023-05-15T20:34:09.781Z,10.5
2023-05-15T20:38:13.767Z,10.3
2023-05-15T20:50:29.033Z,10.1
2023-05-15T20:54:32.952Z,10
2023-05-15T20:56:34.938Z,10.1
2023-05-15T20:58:36.923Z,10
2023-05-15T21:00:42.192Z,10.1
2023-05-15T21:02:44.220Z,10.2
2023-05-15T21:04:46.170Z,10
2023-05-15T21:05:48.797Z,9.9
2023-05-15T21:11:54.792Z,9.8
2023-05-15T21:16:01.831Z,10
2023-05-15T21:24:09.852Z,9.9
2023-05-15T21:26:11.858Z,9.8
2023-05-15T21:34:23.038Z,9.7
2023-05-15T21:38:27.077Z,9.9
2023-05-15T21:48:40.148Z,9.8
2023-05-15T21:56:51.403Z,9.8
2023-05-15T22:00:55.403Z,9.7
2023-05-15T22:01:58.078Z,9.6
2023-05-15T22:10:09.229Z,9.6
2023-05-15T22:14:13.205Z,9.5
2023-05-15T22:16:15.194Z,9.5
2023-05-15T22:18:17.189Z,9.5
2023-05-15T22:22:21.200Z,9.4
2023-05-15T22:24:26.429Z,9.4
2023-05-15T22:26:28.423Z,9.5
2023-05-15T22:28:30.425Z,9.3
2023-05-15T22:38:43.634Z,9.1
2023-05-15T22:40:45.639Z,9.3
2023-05-15T22:59:33.714Z,9.1
2023-05-15T23:01:35.798Z,9
2023-05-15T23:03:37.859Z,9.1
2023-05-15T23:05:42.961Z,9.1
2023-05-15T23:07:44.962Z,9.1
2023-05-15T23:13:50.923Z,9
2023-05-15T23:15:52.943Z,8.9
2023-05-15T23:20:00.244Z,9.2
2023-05-15T23:22:02.235Z,8.9
2023-05-15T23:24:04.141Z,9
2023-05-15T23:26:06.153Z,9
2023-05-15T23:28:08.109Z,9
2023-05-15T23:32:12.127Z,8.8
2023-05-15T23:34:17.351Z,8.9
2023-05-15T23:36:19.378Z,9
2023-05-15T23:38:21.326Z,8.9
2023-05-15T23:40:23.312Z,9
2023-05-15T23:42:25.258Z,8.9
2023-05-15T23:44:27.290Z,8.8
2023-05-15T23:46:29.349Z,8.5
2023-05-15T23:48:34.499Z,8.9
2023-05-15T23:50:36.497Z,8.7
2023-05-15T23:52:38.500Z,9.1
2023-05-15T23:53:41.078Z,8.7
